sensor_id;sensor_type;location;lat;lon;timestamp;temperature;humidity
13960;DHT22;7052;51.050;3.716;2023-09-19T00:00:38;15.40;93.40
13960;DHT22;7052;51.050;3.716;2023-09-19T00:03:07;15.40;93.20
13960;DHT22;7052;51.050;3.716;2023-09-19T00:05:37;15.40;93.40
13960;DHT22;7052;51.050;3.716;2023-09-19T00:08:10;15.40;93.40
13960;DHT22;7052;51.050;3.716;2023-09-19T00:10:39;15.40;93.50
13960;DHT22;7052;51.050;3.716;2023-09-19T00:13:10;15.40;93.70
13960;DHT22;7052;51.050;3.716;2023-09-19T00:15:43;15.40;94.10
13960;DHT22;7052;51.050;3.716;2023-09-19T00:18:14;15.40;94.00
13960;DHT22;7052;51.050;3.716;2023-09-19T00:20:44;15.40;94.10
13960;DHT22;7052;51.050;3.716;2023-09-19T00:23:16;15.30;94.20
13960;DHT22;7052;51.050;3.716;2023-09-19T00:25:44;15.30;94.40
13960;DHT22;7052;51.050;3.716;2023-09-19T00:28:13;15.30;94.50
13960;DHT22;7052;51.050;3.716;2023-09-19T00:30:42;15.30;94.60
13960;DHT22;7052;51.050;3.716;2023-09-19T00:33:11;15.30;94.80
13960;DHT22;7052;51.050;3.716;2023-09-19T00:35:47;15.30;95.00
13960;DHT22;7052;51.050;3.716;2023-09-19T00:38:14;15.30;94.80
13960;DHT22;7052;51.050;3.716;2023-09-19T00:40:44;15.20;94.90
13960;DHT22;7052;51.050;3.716;2023-09-19T00:43:13;15.20;95.00
13960;DHT22;7052;51.050;3.716;2023-09-19T00:45:44;15.20;95.10
13960;DHT22;7052;51.050;3.716;2023-09-19T00:48:12;15.20;95.10
13960;DHT22;7052;51.050;3.716;2023-09-19T00:50:41;15.20;95.30
13960;DHT22;7052;51.050;3.716;2023-09-19T00:53:09;15.20;95.50
13960;DHT22;7052;51.050;3.716;2023-09-19T00:55:40;15.20;95.70
13960;DHT22;7052;51.050;3.716;2023-09-19T00:58:12;15.20;95.90
13960;DHT22;7052;51.050;3.716;2023-09-19T01:00:40;15.20;96.10
13960;DHT22;7052;51.050;3.716;2023-09-19T01:03:11;15.10;96.20
13960;DHT22;7052;51.050;3.716;2023-09-19T01:05:40;15.10;96.60
13960;DHT22;7052;51.050;3.716;2023-09-19T01:08:09;15.10;96.90
13960;DHT22;7052;51.050;3.716;2023-09-19T01:10:42;15.10;97.10
13960;DHT22;7052;51.050;3.716;2023-09-19T01:13:19;15.10;97.40
13960;DHT22;7052;51.050;3.716;2023-09-19T01:15:55;15.10;97.70
13960;DHT22;7052;51.050;3.716;2023-09-19T01:18:30;15.00;97.90
13960;DHT22;7052;51.050;3.716;2023-09-19T01:21:08;15.00;98.20
13960;DHT22;7052;51.050;3.716;2023-09-19T01:24:01;15.00;98.60
13960;DHT22;7052;51.050;3.716;2023-09-19T01:26:53;15.00;98.90
13960;DHT22;7052;51.050;3.716;2023-09-19T01:29:33;15.00;99.20
13960;DHT22;7052;51.050;3.716;2023-09-19T01:32:08;15.10;99.50
13960;DHT22;7052;51.050;3.716;2023-09-19T01:34:48;15.10;99.90
13960;DHT22;7052;51.050;3.716;2023-09-19T01:37:17;15.10;99.90
13960;DHT22;7052;51.050;3.716;2023-09-19T01:39:46;15.10;99.90
13960;DHT22;7052;51.050;3.716;2023-09-19T01:42:21;15.10;99.90
13960;DHT22;7052;51.050;3.716;2023-09-19T01:44:59;15.10;99.90
13960;DHT22;7052;51.050;3.716;2023-09-19T01:47:33;15.10;99.90
13960;DHT22;7052;51.050;3.716;2023-09-19T01:50:12;15.10;99.90
13960;DHT22;7052;51.050;3.716;2023-09-19T01:52:47;15.10;99.90
13960;DHT22;7052;51.050;3.716;2023-09-19T01:55:17;15.10;99.90
13960;DHT22;7052;51.050;3.716;2023-09-19T01:57:52;15.10;99.90
13960;DHT22;7052;51.050;3.716;2023-09-19T02:00:22;15.10;99.90
13960;DHT22;7052;51.050;3.716;2023-09-19T02:02:51;15.10;99.90
13960;DHT22;7052;51.050;3.716;2023-09-19T02:05:26;15.10;99.90
13960;DHT22;7052;51.050;3.716;2023-09-19T02:07:54;15.20;99.90
13960;DHT22;7052;51.050;3.716;2023-09-19T02:10:21;15.10;99.90
13960;DHT22;7052;51.050;3.716;2023-09-19T02:12:51;15.10;99.90
13960;DHT22;7052;51.050;3.716;2023-09-19T02:15:18;15.10;99.90
13960;DHT22;7052;51.050;3.716;2023-09-19T02:17:45;15.10;99.90
13960;DHT22;7052;51.050;3.716;2023-09-19T02:20:14;15.20;99.90
13960;DHT22;7052;51.050;3.716;2023-09-19T02:22:42;15.10;99.90
13960;DHT22;7052;51.050;3.716;2023-09-19T02:25:10;15.20;99.90
13960;DHT22;7052;51.050;3.716;2023-09-19T02:27:41;15.20;99.90
13960;DHT22;7052;51.050;3.716;2023-09-19T02:30:08;15.20;99.90
13960;DHT22;7052;51.050;3.716;2023-09-19T02:32:36;15.20;99.90
13960;DHT22;7052;51.050;3.716;2023-09-19T02:35:06;15.20;99.90
13960;DHT22;7052;51.050;3.716;2023-09-19T02:37:38;15.20;99.90
13960;DHT22;7052;51.050;3.716;2023-09-19T02:40:07;15.20;99.90
13960;DHT22;7052;51.050;3.716;2023-09-19T02:42:45;15.20;99.90
13960;DHT22;7052;51.050;3.716;2023-09-19T02:45:16;15.30;99.90
13960;DHT22;7052;51.050;3.716;2023-09-19T02:47:48;15.30;99.90
13960;DHT22;7052;51.050;3.716;2023-09-19T02:50:16;15.30;99.90
13960;DHT22;7052;51.050;3.716;2023-09-19T02:52:47;15.40;99.90
13960;DHT22;7052;51.050;3.716;2023-09-19T02:55:17;15.40;99.90
13960;DHT22;7052;51.050;3.716;2023-09-19T02:57:49;15.40;99.90
13960;DHT22;7052;51.050;3.716;2023-09-19T03:00:17;15.40;99.90
13960;DHT22;7052;51.050;3.716;2023-09-19T03:02:48;15.50;99.90
13960;DHT22;7052;51.050;3.716;2023-09-19T03:05:15;15.40;99.90
13960;DHT22;7052;51.050;3.716;2023-09-19T03:07:46;15.40;99.90
13960;DHT22;7052;51.050;3.716;2023-09-19T03:10:17;15.40;99.90
13960;DHT22;7052;51.050;3.716;2023-09-19T03:12:45;15.40;99.90
13960;DHT22;7052;51.050;3.716;2023-09-19T03:15:15;15.50;99.90
13960;DHT22;7052;51.050;3.716;2023-09-19T03:17:43;15.50;99.90
13960;DHT22;7052;51.050;3.716;2023-09-19T03:20:12;15.40;99.90
13960;DHT22;7052;51.050;3.716;2023-09-19T03:22:40;15.40;99.90
13960;DHT22;7052;51.050;3.716;2023-09-19T03:25:11;15.30;99.90
13960;DHT22;7052;51.050;3.716;2023-09-19T03:27:41;15.30;99.90
13960;DHT22;7052;51.050;3.716;2023-09-19T03:30:09;15.30;99.90
13960;DHT22;7052;51.050;3.716;2023-09-19T03:32:44;15.20;99.90
13960;DHT22;7052;51.050;3.716;2023-09-19T03:35:11;15.20;99.90
13960;DHT22;7052;51.050;3.716;2023-09-19T03:37:40;15.20;99.90
13960;DHT22;7052;51.050;3.716;2023-09-19T03:40:11;15.20;99.90
13960;DHT22;7052;51.050;3.716;2023-09-19T03:42:41;15.10;99.90
13960;DHT22;7052;51.050;3.716;2023-09-19T03:45:09;15.10;99.90
13960;DHT22;7052;51.050;3.716;2023-09-19T03:47:41;15.10;99.90
13960;DHT22;7052;51.050;3.716;2023-09-19T03:50:08;15.10;99.90
13960;DHT22;7052;51.050;3.716;2023-09-19T03:52:37;15.00;99.90
13960;DHT22;7052;51.050;3.716;2023-09-19T03:55:08;15.00;99.90
13960;DHT22;7052;51.050;3.716;2023-09-19T03:57:39;15.00;99.90
13960;DHT22;7052;51.050;3.716;2023-09-19T04:00:07;14.90;99.90
13960;DHT22;7052;51.050;3.716;2023-09-19T04:02:37;15.00;99.90
13960;DHT22;7052;51.050;3.716;2023-09-19T04:05:05;14.90;99.90
13960;DHT22;7052;51.050;3.716;2023-09-19T04:07:32;14.90;99.90
13960;DHT22;7052;51.050;3.716;2023-09-19T04:10:00;14.80;99.90
13960;DHT22;7052;51.050;3.716;2023-09-19T04:12:28;14.80;99.90
13960;DHT22;7052;51.050;3.716;2023-09-19T04:14:55;14.70;99.90
13960;DHT22;7052;51.050;3.716;2023-09-19T04:17:23;14.60;99.90
13960;DHT22;7052;51.050;3.716;2023-09-19T04:19:51;14.60;99.90
13960;DHT22;7052;51.050;3.716;2023-09-19T04:22:19;14.50;99.90
13960;DHT22;7052;51.050;3.716;2023-09-19T04:24:47;14.50;99.90
13960;DHT22;7052;51.050;3.716;2023-09-19T04:27:15;14.50;99.90
13960;DHT22;7052;51.050;3.716;2023-09-19T04:29:45;14.40;99.90
13960;DHT22;7052;51.050;3.716;2023-09-19T04:32:18;14.40;99.90
13960;DHT22;7052;51.050;3.716;2023-09-19T04:34:50;14.40;99.90
13960;DHT22;7052;51.050;3.716;2023-09-19T04:37:19;14.40;99.90
13960;DHT22;7052;51.050;3.716;2023-09-19T04:39:47;14.40;99.90
13960;DHT22;7052;51.050;3.716;2023-09-19T04:42:14;14.40;99.90
13960;DHT22;7052;51.050;3.716;2023-09-19T04:44:45;14.40;99.90
13960;DHT22;7052;51.050;3.716;2023-09-19T04:47:14;14.40;99.90
13960;DHT22;7052;51.050;3.716;2023-09-19T04:49:42;14.40;99.90
13960;DHT22;7052;51.050;3.716;2023-09-19T04:52:09;14.40;99.90
13960;DHT22;7052;51.050;3.716;2023-09-19T04:54:36;14.40;99.90
13960;DHT22;7052;51.050;3.716;2023-09-19T04:57:04;14.40;99.90
13960;DHT22;7052;51.050;3.716;2023-09-19T04:59:32;14.40;99.90
13960;DHT22;7052;51.050;3.716;2023-09-19T05:02:00;14.40;99.90
13960;DHT22;7052;51.050;3.716;2023-09-19T05:04:27;14.40;99.90
13960;DHT22;7052;51.050;3.716;2023-09-19T05:06:55;14.40;99.90
13960;DHT22;7052;51.050;3.716;2023-09-19T05:09:22;14.50;99.90
13960;DHT22;7052;51.050;3.716;2023-09-19T05:11:50;14.50;99.90
13960;DHT22;7052;51.050;3.716;2023-09-19T05:14:18;14.50;99.90
13960;DHT22;7052;51.050;3.716;2023-09-19T05:16:49;14.50;99.90
13960;DHT22;7052;51.050;3.716;2023-09-19T05:19:22;14.50;99.90
13960;DHT22;7052;51.050;3.716;2023-09-19T05:21:49;14.50;99.90
13960;DHT22;7052;51.050;3.716;2023-09-19T05:24:18;14.50;99.90
13960;DHT22;7052;51.050;3.716;2023-09-19T05:26:45;14.50;99.90
13960;DHT22;7052;51.050;3.716;2023-09-19T05:29:14;14.50;99.90
13960;DHT22;7052;51.050;3.716;2023-09-19T05:31:41;14.50;99.90
13960;DHT22;7052;51.050;3.716;2023-09-19T05:34:08;14.50;99.90
13960;DHT22;7052;51.050;3.716;2023-09-19T05:36:38;14.50;99.90
13960;DHT22;7052;51.050;3.716;2023-09-19T05:39:05;14.50;99.90
13960;DHT22;7052;51.050;3.716;2023-09-19T05:41:35;14.50;99.90
13960;DHT22;7052;51.050;3.716;2023-09-19T05:44:05;14.50;99.90
13960;DHT22;7052;51.050;3.716;2023-09-19T05:46:33;14.50;99.90
13960;DHT22;7052;51.050;3.716;2023-09-19T05:49:06;14.60;99.90
13960;DHT22;7052;51.050;3.716;2023-09-19T05:51:34;14.60;99.90
13960;DHT22;7052;51.050;3.716;2023-09-19T05:54:05;14.60;99.90
13960;DHT22;7052;51.050;3.716;2023-09-19T05:56:33;14.70;99.90
13960;DHT22;7052;51.050;3.716;2023-09-19T05:59:00;14.60;99.90
13960;DHT22;7052;51.050;3.716;2023-09-19T06:01:30;14.60;99.90
13960;DHT22;7052;51.050;3.716;2023-09-19T06:04:00;14.70;99.90
13960;DHT22;7052;51.050;3.716;2023-09-19T06:06:28;14.70;99.90
13960;DHT22;7052;51.050;3.716;2023-09-19T06:08:57;14.80;99.90
13960;DHT22;7052;51.050;3.716;2023-09-19T06:11:25;14.80;99.90
13960;DHT22;7052;51.050;3.716;2023-09-19T06:13:54;14.80;99.90
13960;DHT22;7052;51.050;3.716;2023-09-19T06:16:21;14.80;99.90
13960;DHT22;7052;51.050;3.716;2023-09-19T06:18:49;14.90;99.90
13960;DHT22;7052;51.050;3.716;2023-09-19T06:21:19;14.90;99.90
13960;DHT22;7052;51.050;3.716;2023-09-19T06:23:47;15.00;99.90
13960;DHT22;7052;51.050;3.716;2023-09-19T06:26:16;15.00;99.90
13960;DHT22;7052;51.050;3.716;2023-09-19T06:28:46;15.00;99.90
13960;DHT22;7052;51.050;3.716;2023-09-19T06:31:20;15.00;99.90
13960;DHT22;7052;51.050;3.716;2023-09-19T06:33:49;15.00;99.90
13960;DHT22;7052;51.050;3.716;2023-09-19T06:36:17;15.10;99.90
13960;DHT22;7052;51.050;3.716;2023-09-19T06:38:44;15.10;99.90
13960;DHT22;7052;51.050;3.716;2023-09-19T06:41:14;15.10;99.90
13960;DHT22;7052;51.050;3.716;2023-09-19T06:43:44;15.10;99.90
13960;DHT22;7052;51.050;3.716;2023-09-19T06:46:11;15.20;99.90
13960;DHT22;7052;51.050;3.716;2023-09-19T06:48:39;15.20;99.90
13960;DHT22;7052;51.050;3.716;2023-09-19T06:51:07;15.30;99.90
13960;DHT22;7052;51.050;3.716;2023-09-19T06:53:36;15.30;99.90
13960;DHT22;7052;51.050;3.716;2023-09-19T06:56:03;15.40;99.90
13960;DHT22;7052;51.050;3.716;2023-09-19T06:58:32;15.50;99.90
13960;DHT22;7052;51.050;3.716;2023-09-19T07:01:01;15.60;99.90
13960;DHT22;7052;51.050;3.716;2023-09-19T07:03:28;15.70;99.90
13960;DHT22;7052;51.050;3.716;2023-09-19T07:05:56;15.70;99.90
13960;DHT22;7052;51.050;3.716;2023-09-19T07:08:24;15.80;99.90
13960;DHT22;7052;51.050;3.716;2023-09-19T07:10:52;15.80;99.90
13960;DHT22;7052;51.050;3.716;2023-09-19T07:13:19;15.80;99.90
13960;DHT22;7052;51.050;3.716;2023-09-19T07:15:46;15.90;99.90
13960;DHT22;7052;51.050;3.716;2023-09-19T07:18:19;15.90;99.90
13960;DHT22;7052;51.050;3.716;2023-09-19T07:20:47;16.00;99.90
13960;DHT22;7052;51.050;3.716;2023-09-19T07:23:16;16.10;99.90
13960;DHT22;7052;51.050;3.716;2023-09-19T07:25:45;16.20;99.90
13960;DHT22;7052;51.050;3.716;2023-09-19T07:28:15;16.30;99.90
13960;DHT22;7052;51.050;3.716;2023-09-19T07:30:42;16.40;99.90
13960;DHT22;7052;51.050;3.716;2023-09-19T07:33:11;16.40;99.90
13960;DHT22;7052;51.050;3.716;2023-09-19T07:35:54;16.50;99.90
13960;DHT22;7052;51.050;3.716;2023-09-19T07:38:22;16.60;99.90
13960;DHT22;7052;51.050;3.716;2023-09-19T07:40:50;16.70;99.90
13960;DHT22;7052;51.050;3.716;2023-09-19T07:43:17;16.80;99.90
13960;DHT22;7052;51.050;3.716;2023-09-19T07:45:45;16.90;99.90
13960;DHT22;7052;51.050;3.716;2023-09-19T07:48:12;17.00;99.90
13960;DHT22;7052;51.050;3.716;2023-09-19T07:50:40;17.00;99.90
13960;DHT22;7052;51.050;3.716;2023-09-19T07:53:12;17.20;99.90
13960;DHT22;7052;51.050;3.716;2023-09-19T07:55:43;17.20;99.90
13960;DHT22;7052;51.050;3.716;2023-09-19T07:58:13;17.30;99.90
13960;DHT22;7052;51.050;3.716;2023-09-19T08:00:41;17.40;99.90
13960;DHT22;7052;51.050;3.716;2023-09-19T08:03:08;17.40;99.90
13960;DHT22;7052;51.050;3.716;2023-09-19T08:05:41;17.50;99.90
13960;DHT22;7052;51.050;3.716;2023-09-19T08:08:20;17.50;99.90
13960;DHT22;7052;51.050;3.716;2023-09-19T08:10:52;17.60;99.90
13960;DHT22;7052;51.050;3.716;2023-09-19T08:13:22;17.70;99.90
13960;DHT22;7052;51.050;3.716;2023-09-19T08:15:51;17.70;99.90
13960;DHT22;7052;51.050;3.716;2023-09-19T08:18:23;17.80;99.90
13960;DHT22;7052;51.050;3.716;2023-09-19T08:20:56;17.80;99.90
13960;DHT22;7052;51.050;3.716;2023-09-19T08:23:27;17.90;99.90
13960;DHT22;7052;51.050;3.716;2023-09-19T08:25:56;18.00;99.90
13960;DHT22;7052;51.050;3.716;2023-09-19T08:28:28;18.00;99.90
13960;DHT22;7052;51.050;3.716;2023-09-19T08:30:55;18.10;99.90
13960;DHT22;7052;51.050;3.716;2023-09-19T08:33:25;18.20;99.90
13960;DHT22;7052;51.050;3.716;2023-09-19T08:35:56;18.30;99.80
13960;DHT22;7052;51.050;3.716;2023-09-19T08:38:25;18.30;99.30
13960;DHT22;7052;51.050;3.716;2023-09-19T08:40:58;18.40;98.80
13960;DHT22;7052;51.050;3.716;2023-09-19T08:43:27;18.40;97.90
13960;DHT22;7052;51.050;3.716;2023-09-19T08:46:02;18.40;98.10
13960;DHT22;7052;51.050;3.716;2023-09-19T08:48:34;18.60;97.10
13960;DHT22;7052;51.050;3.716;2023-09-19T08:51:07;18.60;96.30
13960;DHT22;7052;51.050;3.716;2023-09-19T08:53:41;18.60;96.20
13960;DHT22;7052;51.050;3.716;2023-09-19T08:56:22;18.70;95.80
13960;DHT22;7052;51.050;3.716;2023-09-19T08:58:57;18.70;95.40
13960;DHT22;7052;51.050;3.716;2023-09-19T09:01:27;18.80;95.80
13960;DHT22;7052;51.050;3.716;2023-09-19T09:03:56;18.80;95.30
13960;DHT22;7052;51.050;3.716;2023-09-19T09:06:26;18.90;95.00
13960;DHT22;7052;51.050;3.716;2023-09-19T09:08:55;18.80;94.90
13960;DHT22;7052;51.050;3.716;2023-09-19T09:11:22;18.90;94.10
13960;DHT22;7052;51.050;3.716;2023-09-19T09:13:50;18.90;93.60
13960;DHT22;7052;51.050;3.716;2023-09-19T09:16:17;18.90;93.10
13960;DHT22;7052;51.050;3.716;2023-09-19T09:18:46;18.80;93.40
13960;DHT22;7052;51.050;3.716;2023-09-19T09:21:18;18.70;93.60
13960;DHT22;7052;51.050;3.716;2023-09-19T09:23:47;18.80;93.30
13960;DHT22;7052;51.050;3.716;2023-09-19T09:26:15;18.70;93.70
13960;DHT22;7052;51.050;3.716;2023-09-19T09:28:45;18.60;94.10
13960;DHT22;7052;51.050;3.716;2023-09-19T09:31:23;18.50;94.30
13960;DHT22;7052;51.050;3.716;2023-09-19T09:33:54;18.50;94.50
13960;DHT22;7052;51.050;3.716;2023-09-19T09:36:34;18.60;94.60
13960;DHT22;7052;51.050;3.716;2023-09-19T09:39:03;18.60;94.70
13960;DHT22;7052;51.050;3.716;2023-09-19T09:41:42;18.70;94.50
13960;DHT22;7052;51.050;3.716;2023-09-19T09:44:15;18.80;94.30
13960;DHT22;7052;51.050;3.716;2023-09-19T09:46:43;18.90;93.70
13960;DHT22;7052;51.050;3.716;2023-09-19T09:49:27;19.10;93.50
13960;DHT22;7052;51.050;3.716;2023-09-19T09:52:01;19.10;93.60
13960;DHT22;7052;51.050;3.716;2023-09-19T09:54:35;19.20;93.60
13960;DHT22;7052;51.050;3.716;2023-09-19T09:57:11;19.40;92.60
13960;DHT22;7052;51.050;3.716;2023-09-19T09:59:47;19.50;92.60
13960;DHT22;7052;51.050;3.716;2023-09-19T10:02:18;19.60;92.30
13960;DHT22;7052;51.050;3.716;2023-09-19T10:04:53;19.70;91.50
13960;DHT22;7052;51.050;3.716;2023-09-19T10:07:35;19.80;91.20
13960;DHT22;7052;51.050;3.716;2023-09-19T10:10:08;20.00;90.40
13960;DHT22;7052;51.050;3.716;2023-09-19T10:13:00;20.00;90.40
13960;DHT22;7052;51.050;3.716;2023-09-19T10:15:32;20.00;90.00
13960;DHT22;7052;51.050;3.716;2023-09-19T10:18:01;20.10;89.40
13960;DHT22;7052;51.050;3.716;2023-09-19T10:20:31;20.10;89.40
13960;DHT22;7052;51.050;3.716;2023-09-19T10:23:06;20.20;87.40
13960;DHT22;7052;51.050;3.716;2023-09-19T10:25:39;20.20;86.70
13960;DHT22;7052;51.050;3.716;2023-09-19T10:28:11;20.20;86.90
13960;DHT22;7052;51.050;3.716;2023-09-19T10:30:41;20.10;86.80
13960;DHT22;7052;51.050;3.716;2023-09-19T10:33:18;20.30;85.80
13960;DHT22;7052;51.050;3.716;2023-09-19T10:35:47;20.40;86.10
13960;DHT22;7052;51.050;3.716;2023-09-19T10:38:23;20.50;84.30
13960;DHT22;7052;51.050;3.716;2023-09-19T10:40:52;20.60;84.20
13960;DHT22;7052;51.050;3.716;2023-09-19T10:43:31;20.70;84.10
13960;DHT22;7052;51.050;3.716;2023-09-19T10:46:01;20.70;83.70
13960;DHT22;7052;51.050;3.716;2023-09-19T10:48:36;20.90;82.80
13960;DHT22;7052;51.050;3.716;2023-09-19T10:51:17;20.90;82.50
13960;DHT22;7052;51.050;3.716;2023-09-19T10:53:52;21.00;82.20
13960;DHT22;7052;51.050;3.716;2023-09-19T10:56:25;21.00;81.40
13960;DHT22;7052;51.050;3.716;2023-09-19T10:59:09;21.00;80.50
13960;DHT22;7052;51.050;3.716;2023-09-19T11:01:45;21.00;79.40
13960;DHT22;7052;51.050;3.716;2023-09-19T11:04:26;21.00;78.30
13960;DHT22;7052;51.050;3.716;2023-09-19T11:07:04;21.20;77.80
13960;DHT22;7052;51.050;3.716;2023-09-19T11:09:46;21.10;78.30
13960;DHT22;7052;51.050;3.716;2023-09-19T11:18:55;21.30;77.50
13960;DHT22;7052;51.050;3.716;2023-09-19T11:21:40;21.30;77.40
13960;DHT22;7052;51.050;3.716;2023-09-19T11:24:31;21.50;76.20
13960;DHT22;7052;51.050;3.716;2023-09-19T11:27:14;21.70;74.80
13960;DHT22;7052;51.050;3.716;2023-09-19T11:29:46;21.70;75.00
13960;DHT22;7052;51.050;3.716;2023-09-19T11:32:14;21.80;73.90
13960;DHT22;7052;51.050;3.716;2023-09-19T11:34:49;21.80;74.20
13960;DHT22;7052;51.050;3.716;2023-09-19T11:40:56;21.70;72.50
13960;DHT22;7052;51.050;3.716;2023-09-19T11:43:36;21.60;71.80
13960;DHT22;7052;51.050;3.716;2023-09-19T11:46:08;21.60;72.70
13960;DHT22;7052;51.050;3.716;2023-09-19T11:48:39;21.70;72.50
13960;DHT22;7052;51.050;3.716;2023-09-19T11:51:14;21.50;72.90
13960;DHT22;7052;51.050;3.716;2023-09-19T11:53:52;21.40;74.40
13960;DHT22;7052;51.050;3.716;2023-09-19T11:56:26;21.20;76.40
13960;DHT22;7052;51.050;3.716;2023-09-19T11:58:57;21.30;75.80
13960;DHT22;7052;51.050;3.716;2023-09-19T12:01:29;21.20;76.90
13960;DHT22;7052;51.050;3.716;2023-09-19T12:03:58;21.30;76.90
13960;DHT22;7052;51.050;3.716;2023-09-19T12:06:29;21.50;74.40
13960;DHT22;7052;51.050;3.716;2023-09-19T12:08:58;21.50;75.40
13960;DHT22;7052;51.050;3.716;2023-09-19T12:11:29;21.70;76.20
13960;DHT22;7052;51.050;3.716;2023-09-19T12:14:01;21.80;75.90
13960;DHT22;7052;51.050;3.716;2023-09-19T12:16:29;21.80;74.90
13960;DHT22;7052;51.050;3.716;2023-09-19T12:18:57;21.90;73.20
13960;DHT22;7052;51.050;3.716;2023-09-19T12:21:27;22.00;72.20
13960;DHT22;7052;51.050;3.716;2023-09-19T12:24:06;21.90;72.60
13960;DHT22;7052;51.050;3.716;2023-09-19T12:26:39;21.70;71.50
13960;DHT22;7052;51.050;3.716;2023-09-19T12:29:19;21.50;73.90
13960;DHT22;7052;51.050;3.716;2023-09-19T12:31:51;21.40;75.10
13960;DHT22;7052;51.050;3.716;2023-09-19T12:34:21;21.50;75.30
13960;DHT22;7052;51.050;3.716;2023-09-19T12:37:03;21.50;74.10
13960;DHT22;7052;51.050;3.716;2023-09-19T12:39:43;21.50;74.90
13960;DHT22;7052;51.050;3.716;2023-09-19T12:42:15;21.60;75.20
13960;DHT22;7052;51.050;3.716;2023-09-19T12:44:45;21.60;75.00
13960;DHT22;7052;51.050;3.716;2023-09-19T12:47:14;21.60;74.20
13960;DHT22;7052;51.050;3.716;2023-09-19T12:50:11;21.60;75.60
13960;DHT22;7052;51.050;3.716;2023-09-19T12:52:52;21.60;76.00
13960;DHT22;7052;51.050;3.716;2023-09-19T12:55:26;21.70;75.30
13960;DHT22;7052;51.050;3.716;2023-09-19T12:58:03;21.70;73.80
13960;DHT22;7052;51.050;3.716;2023-09-19T13:00:36;21.50;74.70
13960;DHT22;7052;51.050;3.716;2023-09-19T13:03:16;21.50;72.70
13960;DHT22;7052;51.050;3.716;2023-09-19T13:05:52;21.40;74.00
13960;DHT22;7052;51.050;3.716;2023-09-19T13:08:28;21.30;75.80
13960;DHT22;7052;51.050;3.716;2023-09-19T13:11:07;21.20;74.70
13960;DHT22;7052;51.050;3.716;2023-09-19T13:13:39;21.30;73.90
13960;DHT22;7052;51.050;3.716;2023-09-19T13:16:07;21.40;74.30
13960;DHT22;7052;51.050;3.716;2023-09-19T13:18:48;21.40;74.80
13960;DHT22;7052;51.050;3.716;2023-09-19T13:21:29;21.50;73.90
13960;DHT22;7052;51.050;3.716;2023-09-19T13:24:21;21.50;73.40
13960;DHT22;7052;51.050;3.716;2023-09-19T13:26:53;21.50;74.70
13960;DHT22;7052;51.050;3.716;2023-09-19T13:29:23;21.60;74.00
13960;DHT22;7052;51.050;3.716;2023-09-19T13:31:51;21.60;74.20
13960;DHT22;7052;51.050;3.716;2023-09-19T13:34:20;21.70;75.00
13960;DHT22;7052;51.050;3.716;2023-09-19T13:36:47;21.70;75.70
13960;DHT22;7052;51.050;3.716;2023-09-19T13:39:15;21.60;75.30
13960;DHT22;7052;51.050;3.716;2023-09-19T13:41:47;21.50;76.10
13960;DHT22;7052;51.050;3.716;2023-09-19T13:44:17;21.50;77.00
13960;DHT22;7052;51.050;3.716;2023-09-19T13:46:45;21.40;77.70
13960;DHT22;7052;51.050;3.716;2023-09-19T13:49:16;21.40;77.70
13960;DHT22;7052;51.050;3.716;2023-09-19T13:51:44;21.20;78.40
13960;DHT22;7052;51.050;3.716;2023-09-19T13:54:11;21.10;78.50
13960;DHT22;7052;51.050;3.716;2023-09-19T13:56:39;21.00;78.90
13960;DHT22;7052;51.050;3.716;2023-09-19T13:59:08;20.90;78.40
13960;DHT22;7052;51.050;3.716;2023-09-19T14:01:35;20.90;78.10
13960;DHT22;7052;51.050;3.716;2023-09-19T14:04:02;20.90;78.80
13960;DHT22;7052;51.050;3.716;2023-09-19T14:06:29;20.80;78.70
13960;DHT22;7052;51.050;3.716;2023-09-19T14:08:56;20.80;78.30
13960;DHT22;7052;51.050;3.716;2023-09-19T14:11:27;20.80;78.60
13960;DHT22;7052;51.050;3.716;2023-09-19T14:13:53;20.80;79.40
13960;DHT22;7052;51.050;3.716;2023-09-19T14:16:23;20.80;79.60
13960;DHT22;7052;51.050;3.716;2023-09-19T14:18:50;20.80;79.80
13960;DHT22;7052;51.050;3.716;2023-09-19T14:21:17;20.80;80.50
13960;DHT22;7052;51.050;3.716;2023-09-19T14:23:44;20.70;80.00
13960;DHT22;7052;51.050;3.716;2023-09-19T14:26:12;20.80;80.00
13960;DHT22;7052;51.050;3.716;2023-09-19T14:28:39;20.60;81.00
13960;DHT22;7052;51.050;3.716;2023-09-19T14:31:07;20.50;81.60
13960;DHT22;7052;51.050;3.716;2023-09-19T14:33:38;20.50;82.40
13960;DHT22;7052;51.050;3.716;2023-09-19T14:36:08;20.40;83.20
13960;DHT22;7052;51.050;3.716;2023-09-19T14:38:37;20.40;83.20
13960;DHT22;7052;51.050;3.716;2023-09-19T14:41:05;20.40;83.60
13960;DHT22;7052;51.050;3.716;2023-09-19T14:43:33;20.40;82.70
13960;DHT22;7052;51.050;3.716;2023-09-19T14:46:05;20.40;82.60
13960;DHT22;7052;51.050;3.716;2023-09-19T14:48:34;20.40;83.20
13960;DHT22;7052;51.050;3.716;2023-09-19T14:51:02;20.50;82.80
13960;DHT22;7052;51.050;3.716;2023-09-19T14:53:29;20.50;84.00
13960;DHT22;7052;51.050;3.716;2023-09-19T14:56:00;20.40;83.10
13960;DHT22;7052;51.050;3.716;2023-09-19T14:58:28;20.40;83.30
13960;DHT22;7052;51.050;3.716;2023-09-19T15:01:03;20.40;84.00
13960;DHT22;7052;51.050;3.716;2023-09-19T15:03:31;20.30;84.20
13960;DHT22;7052;51.050;3.716;2023-09-19T15:06:06;20.30;85.30
13960;DHT22;7052;51.050;3.716;2023-09-19T15:08:36;20.30;85.10
13960;DHT22;7052;51.050;3.716;2023-09-19T15:11:03;20.20;85.10
13960;DHT22;7052;51.050;3.716;2023-09-19T15:13:31;20.20;85.60
13960;DHT22;7052;51.050;3.716;2023-09-19T15:15:59;20.20;86.00
13960;DHT22;7052;51.050;3.716;2023-09-19T15:18:31;20.10;86.20
13960;DHT22;7052;51.050;3.716;2023-09-19T15:21:05;20.10;85.90
13960;DHT22;7052;51.050;3.716;2023-09-19T15:23:32;20.00;86.50
13960;DHT22;7052;51.050;3.716;2023-09-19T15:26:00;20.00;86.60
13960;DHT22;7052;51.050;3.716;2023-09-19T15:28:28;19.90;86.70
13960;DHT22;7052;51.050;3.716;2023-09-19T15:30:59;19.90;86.60
13960;DHT22;7052;51.050;3.716;2023-09-19T15:33:27;19.90;87.10
13960;DHT22;7052;51.050;3.716;2023-09-19T15:36:05;20.00;86.10
13960;DHT22;7052;51.050;3.716;2023-09-19T15:38:55;20.00;86.50
13960;DHT22;7052;51.050;3.716;2023-09-19T15:41:24;19.90;87.10
13960;DHT22;7052;51.050;3.716;2023-09-19T15:43:52;20.00;87.40
13960;DHT22;7052;51.050;3.716;2023-09-19T15:46:19;19.90;88.20
13960;DHT22;7052;51.050;3.716;2023-09-19T15:48:49;19.90;88.50
13960;DHT22;7052;51.050;3.716;2023-09-19T15:51:17;19.80;89.00
13960;DHT22;7052;51.050;3.716;2023-09-19T15:53:46;19.80;89.40
13960;DHT22;7052;51.050;3.716;2023-09-19T15:56:15;19.80;89.70
13960;DHT22;7052;51.050;3.716;2023-09-19T15:58:44;19.80;90.10
13960;DHT22;7052;51.050;3.716;2023-09-19T16:01:13;19.70;90.30
13960;DHT22;7052;51.050;3.716;2023-09-19T16:03:45;19.70;90.90
13960;DHT22;7052;51.050;3.716;2023-09-19T16:06:14;19.70;90.80
13960;DHT22;7052;51.050;3.716;2023-09-19T16:08:50;19.70;90.90
13960;DHT22;7052;51.050;3.716;2023-09-19T16:11:18;19.70;90.80
13960;DHT22;7052;51.050;3.716;2023-09-19T16:13:48;19.70;91.00
13960;DHT22;7052;51.050;3.716;2023-09-19T16:16:16;19.70;91.20
13960;DHT22;7052;51.050;3.716;2023-09-19T16:18:48;19.70;91.50